sensor_id;sensor_type;location;lat;lon;timestamp;temperature;humidity
55054;DHT22;40954;45.668;18.980;2023-06-24T08:54:13;691.90;1894.40
55054;DHT22;40954;45.668;18.980;2023-06-24T08:56:40;691.70;1894.40
55054;DHT22;40954;45.668;18.980;2023-06-24T09:01:33;691.30;1920.00
55054;DHT22;40954;45.668;18.980;2023-06-24T09:03:58;691.20;1971.20
55054;DHT22;40954;45.668;18.980;2023-06-24T09:06:24;691.20;1868.80
55054;DHT22;40954;45.668;18.980;2023-06-24T09:08:56;691.30;1868.80
55054;DHT22;40954;45.668;18.980;2023-06-24T09:51:04;717.50;1766.40
55054;DHT22;40954;45.668;18.980;2023-06-24T09:53:31;717.40;1766.40
55054;DHT22;40954;45.668;18.980;2023-06-24T09:56:02;717.30;1740.80
55054;DHT22;40954;45.668;18.980;2023-06-24T09:58:34;716.90;1766.40
55054;DHT22;40954;45.668;18.980;2023-06-24T10:01:05;692.00;1766.40
55054;DHT22;40954;45.668;18.980;2023-06-24T10:03:36;692.10;1766.40
55054;DHT22;40954;45.668;18.980;2023-06-24T10:06:02;716.80;1792.00
55054;DHT22;40954;45.668;18.980;2023-06-24T10:08:29;716.90;1817.60
55054;DHT22;40954;45.668;18.980;2023-06-24T10:10:55;716.90;1766.40
55054;DHT22;40954;45.668;18.980;2023-06-24T10:13:21;717.00;1792.00
55054;DHT22;40954;45.668;18.980;2023-06-24T10:15:48;716.90;1868.80
55054;DHT22;40954;45.668;18.980;2023-06-24T10:18:34;692.00;1766.40
55054;DHT22;40954;45.668;18.980;2023-06-24T10:21:07;691.80;1792.00
55054;DHT22;40954;45.668;18.980;2023-06-24T10:26:29;691.70;1843.20
55054;DHT22;40954;45.668;18.980;2023-06-24T10:29:15;691.60;1868.80
55054;DHT22;40954;45.668;18.980;2023-06-24T10:39:39;691.70;1843.20
55054;DHT22;40954;45.668;18.980;2023-06-24T10:44:54;691.70;1843.20
55054;DHT22;40954;45.668;18.980;2023-06-24T10:47:21;691.50;1843.20
55054;DHT22;40954;45.668;18.980;2023-06-24T10:49:47;691.20;1817.60
55054;DHT22;40954;45.668;18.980;2023-06-24T10:52:13;666.50;1894.40
55054;DHT22;40954;45.668;18.980;2023-06-24T10:54:40;666.40;1868.80
55054;DHT22;40954;45.668;18.980;2023-06-24T10:57:07;691.20;1971.20
55054;DHT22;40954;45.668;18.980;2023-06-24T10:59:44;691.70;1843.20
55054;DHT22;40954;45.668;18.980;2023-06-24T11:04:44;794.50;1664.00
55054;DHT22;40954;45.668;18.980;2023-06-24T12:10:49;947.20;1177.60
55054;DHT22;40954;45.668;18.980;2023-06-24T12:15:41;870.80;1280.00
55054;DHT22;40954;45.668;18.980;2023-06-24T12:18:07;870.70;1280.00
55054;DHT22;40954;45.668;18.980;2023-06-24T12:20:33;845.60;1331.20
55054;DHT22;40954;45.668;18.980;2023-06-24T12:23:00;844.90;1356.80
55054;DHT22;40954;45.668;18.980;2023-06-24T12:35:12;794.40;1433.60
55054;DHT22;40954;45.668;18.980;2023-06-24T12:44:57;844.90;1408.00
55054;DHT22;40954;45.668;18.980;2023-06-24T12:54:42;947.60;1177.60
55054;DHT22;40954;45.668;18.980;2023-06-24T12:57:08;922.40;1203.20
55054;DHT22;40954;45.668;18.980;2023-06-24T12:59:33;947.70;1203.20
55054;DHT22;40954;45.668;18.980;2023-06-24T13:01:59;973.60;1126.40
55054;DHT22;40954;45.668;18.980;2023-06-24T13:04:26;999.10;1100.80
55054;DHT22;40954;45.668;18.980;2023-06-24T13:09:20;973.10;1152.00
55054;DHT22;40954;45.668;18.980;2023-06-24T13:11:46;947.40;1177.60
55054;DHT22;40954;45.668;18.980;2023-06-24T13:16:39;871.30;1254.40
55054;DHT22;40954;45.668;18.980;2023-06-24T13:21:31;845.50;1331.20
55054;DHT22;40954;45.668;18.980;2023-06-24T13:23:57;845.30;1382.40
55054;DHT22;40954;45.668;18.980;2023-06-24T13:26:23;845.60;1408.00
55054;DHT22;40954;45.668;18.980;2023-06-24T13:28:49;845.60;1408.00
55054;DHT22;40954;45.668;18.980;2023-06-24T13:31:15;896.40;1305.60
55054;DHT22;40954;45.668;18.980;2023-06-24T13:33:41;871.00;1331.20
55054;DHT22;40954;45.668;18.980;2023-06-24T13:36:10;845.60;1356.80
55054;DHT22;40954;45.668;18.980;2023-06-24T13:41:03;844.90;1408.00
55054;DHT22;40954;45.668;18.980;2023-06-24T13:45:55;845.10;1408.00
55054;DHT22;40954;45.668;18.980;2023-06-24T13:53:13;973.40;1177.60
55054;DHT22;40954;45.668;18.980;2023-06-24T13:55:39;973.50;1152.00
55054;DHT22;40954;45.668;18.980;2023-06-24T13:58:04;998.90;1152.00
55054;DHT22;40954;45.668;18.980;2023-06-24T14:10:15;1024.30;1100.80
55054;DHT22;40954;45.668;18.980;2023-06-24T14:12:40;1024.10;1126.40
55054;DHT22;40954;45.668;18.980;2023-06-24T14:15:09;999.20;1126.40
55054;DHT22;40954;45.668;18.980;2023-06-24T14:17:35;973.70;1100.80
55054;DHT22;40954;45.668;18.980;2023-06-24T14:20:00;973.30;1152.00
55054;DHT22;40954;45.668;18.980;2023-06-24T14:22:26;947.90;1152.00
55054;DHT22;40954;45.668;18.980;2023-06-24T14:32:10;896.70;1203.20
55054;DHT22;40954;45.668;18.980;2023-06-24T14:34:36;896.60;1203.20
55054;DHT22;40954;45.668;18.980;2023-06-24T14:37:02;896.80;1228.80
55054;DHT22;40954;45.668;18.980;2023-06-24T14:39:27;896.60;1228.80
55054;DHT22;40954;45.668;18.980;2023-06-24T14:41:53;896.60;1228.80
55054;DHT22;40954;45.668;18.980;2023-06-24T14:44:19;896.70;1228.80
55054;DHT22;40954;45.668;18.980;2023-06-24T14:46:45;896.80;1203.20
55054;DHT22;40954;45.668;18.980;2023-06-24T14:49:10;896.60;1203.20
55054;DHT22;40954;45.668;18.980;2023-06-24T14:51:36;896.20;1228.80
55054;DHT22;40954;45.668;18.980;2023-06-24T14:54:02;871.20;1228.80
55054;DHT22;40954;45.668;18.980;2023-06-24T14:56:28;870.80;1280.00
55054;DHT22;40954;45.668;18.980;2023-06-24T14:58:54;870.60;1280.00
55054;DHT22;40954;45.668;18.980;2023-06-24T15:01:19;845.60;1331.20
55054;DHT22;40954;45.668;18.980;2023-06-24T15:06:11;844.80;1382.40
55054;DHT22;40954;45.668;18.980;2023-06-24T15:08:37;844.80;1382.40
55054;DHT22;40954;45.668;18.980;2023-06-24T15:11:02;844.90;1382.40
55054;DHT22;40954;45.668;18.980;2023-06-24T15:13:28;844.90;1382.40
55054;DHT22;40954;45.668;18.980;2023-06-24T15:15:54;820.00;1382.40
55054;DHT22;40954;45.668;18.980;2023-06-24T15:18:22;819.40;1433.60
55054;DHT22;40954;45.668;18.980;2023-06-24T16:09:30;692.10;1843.20
